ESMK/KID METAR and TAF weather

Enter ICAO airport designator
Station Type Date Time Source
ESMK METAR 2019/02/20 07:20 UTC NOAA

ESMK 200720Z 29012KT 9999 FEW017 SCT019 BKN021 05/02 Q1012


Station Type Date Time Source
ESMK Decoded METAR 2019/02/20 07:20 UTC NOAA

Kristianstad / Everod, Sweden (ESMK) 55-55N 014-05E
Feb 20, 2019 - 02:20 AM EST / 2019.02.20 0720 UTC
Wind: from the WNW (290 degrees) at 14 MPH (12 KT):0
Visibility: greater than 7 mile(s):0
Sky conditions: mostly cloudy
Temperature: 41 F (5 C)
Dew Point: 35 F (2 C)
Relative Humidity: 80%
Pressure (altimeter): 29.88 in. Hg (1012 hPa)
ob: ESMK 200720Z 29012KT 9999 FEW017 SCT019 BKN021 05/02 Q1012
cycle: 7

Station Type Date Time Source
ESMK TAF 2015/03/18 12:33 UTC NOAA

TAF ESMK 181130Z 1812/1824 13012KT CAVOK


Example: see airport list